메인 페이지
METAR-TAF:

METAR-TAF

공항 :

벌링턴, 버몬트, 미국

위도: 44-28-05N, 경도: 073-09-01W, 고도: 101m

현재 날씨관측

예보는 33분 전, 14:54시(UTC)에 발표되었습니다.
북서14kt
온도 18°C
습도 56%
기압 1012 hPa
시정: 16.1km
고도 3400ft 상공 흐림

METAR: KBTV 301454Z 32014KT 10SM OVC034 18/09 A2989 RMK AO2 SLP119 T01780089 50004

시각: 11:27 (15:27 UTC)

예보

예보는 3 시간 49분 전, 11:38시(UTC)에 발표되었습니다.
예보 대상 시간: 30일 12시부터 31일 12시까지 (UTC)
서북서12kt
시정: 10km
고도 4500ft 상공 구름 많음
일시적
30일 12시부터 30일 14시까지 (UTC)
고도 2500ft 상공 구름 많음
30일 1500시부터 (UTC)
서북서8kt
시정: 10km
고도 5000ft 상공 구름 보통
30일 2300시부터 (UTC)
6kt
시정: 10km
고도 4000ft 상공 구름 많음
시계 내 소나기
31일 0500시부터 (UTC)
서북서8kt
시정: 10km
고도 2500ft 상공 구름 많음
31일 1000시부터 (UTC)
북북서7kt
시정: 10km
고도 5000ft 상공 구름 많음

TAF: KBTV 301138Z 3012/3112 30012KT P6SM BKN045 TEMPO 3012/3014 BKN025 FM301500 30008KT P6SM SCT050 FM302300 26006KT P6SM VCSH BKN040 FM310500 30008KT P6SM BKN025 FM311000 33007KT P6SM BKN050

4,000개 이상의 공항 관측 자료 및 예보 (METAR 및 TAF 보고).

지도상에서 검색 가능한 기상관측소가 노란 점과 빨간 점으로 표시되어 있습니다.

기상관측소 명을 보려면 표시 위로 마우스를 이동하세요.

날씨 관측과 예보를 보려면 클릭하세요.

지도 변경 : 확대하려면 엑스 표시가 있는 녹색 버튼, 축소하려면 빼기 표시가 있는 녹색 버튼, 다음 페이지의 지도를 보려면 녹색 화살표를 클릭하세요.


METAR-TAF: